Time;durP1;ratioP1;P1;durP2;ratioP2;P2;SDS_P1;SDS_P2;PMS_P1;PMS_P2;Temp;Humidity;BMP_temperature;BMP_pressure;BME280_temperature;BME280_humidity;BME280_pressure;Samples;Min_cycle;Max_cycle;Signal;HPM_P1;HPM_P2
2022/11/17 00:01:12;;;;;;;1.50;0.40;;;;;;;;;;5037405;28;20088;-71
2022/11/17 00:03:38;;;;;;;0.93;0.40;;;;;;;;;;5034354;28;20053;-69
2022/11/17 00:06:04;;;;;;;1.25;0.45;;;;;;;;;;5034402;28;20166;-71
2022/11/17 00:08:31;;;;;;;3.60;0.60;;;;;;;;;;5041080;28;20509;-70
2022/11/17 00:11:04;;;;;;;0.55;0.30;;;;;;;;;;5040516;28;20052;-70
2022/11/17 00:16:17;;;;;;;0.68;0.40;;;;;;;;;;5038719;28;20055;-69
2022/11/17 00:21:29;;;;;;;0.82;0.30;;;;;;;;;;5038565;28;20048;-69
2022/11/17 00:23:55;;;;;;;1.23;0.50;;;;;;;;;;5037395;28;20193;-69
2022/11/17 00:26:23;;;;;;;1.38;0.40;;;;;;;;;;5038123;28;20052;-68
2022/11/17 00:28:54;;;;;;;1.10;0.43;;;;;;;;;;5035033;28;20135;-69
2022/11/17 00:34:06;;;;;;;0.47;0.40;;;;;;;;;;5038623;28;20262;-68
2022/11/17 00:36:33;;;;;;;0.43;0.40;;;;;;;;;;5039866;28;20423;-68
2022/11/17 00:38:59;;;;;;;2.35;0.35;;;;;;;;;;5035232;28;20142;-69
2022/11/17 00:41:25;;;;;;;1.83;0.47;;;;;;;;;;5034862;28;20554;-69
2022/11/17 00:43:50;;;;;;;0.52;0.40;;;;;;;;;;5041599;28;20055;-68
2022/11/17 00:46:16;;;;;;;1.65;0.40;;;;;;;;;;5039136;28;20056;-70
2022/11/17 00:48:42;;;;;;;0.93;0.50;;;;;;;;;;5035085;28;20041;-68
2022/11/17 00:51:08;;;;;;;2.05;0.52;;;;;;;;;;5038274;28;20071;-68
2022/11/17 00:53:34;;;;;;;1.25;0.50;;;;;;;;;;5042551;28;20518;-69
2022/11/17 00:56:00;;;;;;;1.38;0.30;;;;;;;;;;5036409;28;20057;-69
2022/11/17 00:58:26;;;;;;;1.05;0.43;;;;;;;;;;5032269;28;20065;-68
2022/11/17 01:00:52;;;;;;;0.52;0.30;;;;;;;;;;5035112;28;20095;-70
2022/11/17 01:03:17;;;;;;;0.40;0.30;;;;;;;;;;5033760;28;20090;-68
2022/11/17 01:05:43;;;;;;;1.05;0.40;;;;;;;;;;5037233;28;20119;-70
2022/11/17 01:08:09;;;;;;;0.50;0.50;;;;;;;;;;5037080;28;20552;-71
2022/11/17 01:10:35;;;;;;;2.05;0.63;;;;;;;;;;5038165;28;20053;-70
2022/11/17 01:13:01;;;;;;;0.40;0.40;;;;;;;;;;5039178;28;20087;-71
2022/11/17 01:15:27;;;;;;;2.88;0.60;;;;;;;;;;5016539;28;20056;-69
2022/11/17 01:17:53;;;;;;;1.17;0.40;;;;;;;;;;5035526;28;20352;-74
2022/11/17 01:20:19;;;;;;;0.88;0.40;;;;;;;;;;5038697;28;20498;-68
2022/11/17 01:22:45;;;;;;;0.55;0.40;;;;;;;;;;5035601;28;20086;-71
2022/11/17 01:25:11;;;;;;;1.10;0.50;;;;;;;;;;5034061;28;20703;-68
2022/11/17 01:27:37;;;;;;;2.97;0.47;;;;;;;;;;5034796;28;20044;-69
2022/11/17 01:30:04;;;;;;;0.70;0.40;;;;;;;;;;5031753;28;20049;-70
2022/11/17 01:32:29;;;;;;;0.70;0.30;;;;;;;;;;5033678;28;20049;-67
2022/11/17 01:34:55;;;;;;;1.42;0.40;;;;;;;;;;5033389;28;20242;-69
2022/11/17 01:37:21;;;;;;;1.83;0.40;;;;;;;;;;5034144;28;20413;-69
2022/11/17 01:39:49;;;;;;;0.32;0.30;;;;;;;;;;5012511;28;20128;-67
2022/11/17 01:42:18;;;;;;;0.32;0.32;;;;;;;;;;5032864;28;20041;-69
2022/11/17 01:45:03;;;;;;;2.67;0.35;;;;;;;;;;5039593;28;20398;-69
2022/11/17 01:47:38;;;;;;;0.30;0.30;;;;;;;;;;5039473;28;20044;-68
2022/11/17 01:50:34;;;;;;;0.50;0.17;;;;;;;;;;5032386;28;20158;-69
2022/11/17 01:53:04;;;;;;;1.52;0.32;;;;;;;;;;5034100;28;20045;-71
2022/11/17 01:55:43;;;;;;;0.80;0.32;;;;;;;;;;5034629;28;20618;-68
2022/11/17 01:58:18;;;;;;;0.93;0.40;;;;;;;;;;5033054;28;20053;-69
2022/11/17 02:00:44;;;;;;;0.40;0.25;;;;;;;;;;5031098;28;20071;-67
2022/11/17 02:03:10;;;;;;;1.05;0.40;;;;;;;;;;5034649;28;20045;-69
2022/11/17 02:05:59;;;;;;;1.02;0.40;;;;;;;;;;5039397;28;20127;-67
2022/11/17 02:08:29;;;;;;;0.60;0.40;;;;;;;;;;5035601;28;20040;-70
2022/11/17 02:10:56;;;;;;;1.80;0.73;;;;;;;;;;5035790;28;20052;-69
2022/11/17 02:13:23;;;;;;;0.43;0.20;;;;;;;;;;5037651;28;20060;-67
2022/11/17 02:15:49;;;;;;;1.27;0.40;;;;;;;;;;5038133;28;20063;-68
2022/11/17 02:18:16;;;;;;;0.52;0.28;;;;;;;;;;5035435;28;20060;-68
2022/11/17 02:20:59;;;;;;;0.15;0.15;;;;;;;;;;5038502;28;20336;-69
2022/11/17 02:23:47;;;;;;;0.30;0.20;;;;;;;;;;5040530;28;20049;-69
2022/11/17 02:26:21;;;;;;;0.20;0.20;;;;;;;;;;5033876;28;20119;-68
2022/11/17 02:28:49;;;;;;;0.32;0.25;;;;;;;;;;5034338;28;20049;-69
2022/11/17 02:31:32;;;;;;;1.45;0.52;;;;;;;;;;5033776;28;20049;-68
2022/11/17 02:34:19;;;;;;;0.30;0.30;;;;;;;;;;5037596;28;20072;-70
2022/11/17 02:36:52;;;;;;;0.25;0.20;;;;;;;;;;5037114;28;20052;-70
2022/11/17 02:39:24;;;;;;;0.75;0.30;;;;;;;;;;5039136;28;20045;-70
2022/11/17 02:42:06;;;;;;;0.73;0.45;;;;;;;;;;5036188;28;20429;-70
2022/11/17 02:44:43;;;;;;;0.52;0.38;;;;;;;;;;5038611;28;20409;-69
2022/11/17 02:47:26;;;;;;;1.30;0.40;;;;;;;;;;5035897;28;20057;-68
2022/11/17 02:50:00;;;;;;;2.20;0.43;;;;;;;;;;5036393;28;20133;-69
2022/11/17 02:52:28;;;;;;;13.15;1.15;;;;;;;;;;5042275;28;20944;-70
2022/11/17 02:55:02;;;;;;;1.13;0.50;;;;;;;;;;5043606;28;20048;-69
2022/11/17 02:57:37;;;;;;;2.72;0.60;;;;;;;;;;5040789;28;20579;-68
2022/11/17 03:00:10;;;;;;;1.58;0.60;;;;;;;;;;5036815;28;20055;-70
2022/11/17 03:02:41;;;;;;;1.70;0.40;;;;;;;;;;5039575;28;20053;-68
2022/11/17 03:05:21;;;;;;;1.23;0.50;;;;;;;;;;5039593;28;20801;-69
2022/11/17 03:07:56;;;;;;;0.50;0.45;;;;;;;;;;5032939;28;20075;-69
2022/11/17 03:10:50;;;;;;;1.75;0.60;;;;;;;;;;5042135;28;20053;-70
2022/11/17 03:13:30;;;;;;;0.45;0.30;;;;;;;;;;5036418;28;20103;-69
2022/11/17 03:16:07;;;;;;;0.63;0.40;;;;;;;;;;5035089;28;20056;-71
2022/11/17 03:18:50;;;;;;;0.85;0.52;;;;;;;;;;5037220;28;20075;-70
2022/11/17 03:21:19;;;;;;;1.05;0.50;;;;;;;;;;5038743;28;20142;-68
2022/11/17 03:24:06;;;;;;;0.40;0.30;;;;;;;;;;5039943;28;20786;-69
2022/11/17 03:26:35;;;;;;;1.50;0.60;;;;;;;;;;5031092;28;20343;-69
2022/11/17 03:29:06;;;;;;;0.60;0.40;;;;;;;;;;5034579;28;20037;-71
2022/11/17 03:31:33;;;;;;;0.35;0.30;;;;;;;;;;5034676;28;20044;-69
2022/11/17 03:34:02;;;;;;;0.95;0.40;;;;;;;;;;5036344;28;20095;-68
2022/11/17 03:36:32;;;;;;;1.02;0.50;;;;;;;;;;5036823;28;20399;-68
2022/11/17 03:39:04;;;;;;;2.08;0.55;;;;;;;;;;5033916;28;20045;-67
2022/11/17 03:41:34;;;;;;;3.28;0.47;;;;;;;;;;5036583;28;20068;-70
2022/11/17 03:44:03;;;;;;;2.45;0.50;;;;;;;;;;5037333;28;20144;-69
2022/11/17 03:46:30;;;;;;;1.92;0.70;;;;;;;;;;5034690;28;20136;-69
2022/11/17 03:49:05;;;;;;;1.17;0.57;;;;;;;;;;5036937;28;20483;-68
2022/11/17 03:51:32;;;;;;;2.55;0.50;;;;;;;;;;5042540;28;20576;-69
2022/11/17 03:53:59;;;;;;;1.75;0.75;;;;;;;;;;5038700;28;20376;-69
2022/11/17 03:56:49;;;;;;;1.13;0.52;;;;;;;;;;5036014;28;21137;-68
2022/11/17 03:59:26;;;;;;;1.20;0.60;;;;;;;;;;5032498;28;20833;-71
2022/11/17 04:01:52;;;;;;;0.93;0.43;;;;;;;;;;5037981;28;20426;-67
2022/11/17 04:04:20;;;;;;;0.90;0.43;;;;;;;;;;5039547;28;20070;-69
2022/11/17 04:06:48;;;;;;;1.75;0.50;;;;;;;;;;5037242;28;20048;-70
2022/11/17 04:09:14;;;;;;;0.63;0.50;;;;;;;;;;5039964;28;20188;-68
2022/11/17 04:17:09;;;;;;;1.45;0.60;;;;;;;;;;5034908;28;20567;-69
2022/11/17 04:19:35;;;;;;;2.58;0.60;;;;;;;;;;5030901;28;20057;-69
2022/11/17 04:22:00;;;;;;;0.45;0.40;;;;;;;;;;5036796;28;20059;-67
2022/11/17 04:24:26;;;;;;;1.67;0.60;;;;;;;;;;5036062;28;20053;-69
2022/11/17 04:29:36;;;;;;;3.95;0.50;;;;;;;;;;5033081;28;20060;-69
2022/11/17 04:32:02;;;;;;;1.95;0.50;;;;;;;;;;5030170;28;20902;-68
2022/11/17 04:34:28;;;;;;;0.28;0.25;;;;;;;;;;5034048;28;20051;-67
2022/11/17 04:36:54;;;;;;;0.63;0.40;;;;;;;;;;5035657;28;20041;-68
2022/11/17 04:39:20;;;;;;;1.67;0.40;;;;;;;;;;5033690;28;20084;-69
2022/11/17 04:42:02;;;;;;;0.65;0.30;;;;;;;;;;5032916;28;20049;-69
2022/11/17 04:44:30;;;;;;;0.38;0.38;;;;;;;;;;5036304;28;20156;-69
2022/11/17 04:46:56;;;;;;;1.35;0.40;;;;;;;;;;5033778;28;20543;-69
2022/11/17 04:49:24;;;;;;;0.43;0.40;;;;;;;;;;5032785;28;20067;-69
2022/11/17 04:51:51;;;;;;;0.95;0.40;;;;;;;;;;5033846;28;20040;-69
2022/11/17 04:54:19;;;;;;;0.40;0.40;;;;;;;;;;5037626;28;20103;-70
2022/11/17 04:56:46;;;;;;;0.57;0.55;;;;;;;;;;5031488;28;20083;-67
2022/11/17 04:59:13;;;;;;;1.70;0.60;;;;;;;;;;5035074;28;20489;-69
2022/11/17 05:01:40;;;;;;;0.30;0.30;;;;;;;;;;5032606;28;20533;-68
2022/11/17 05:04:08;;;;;;;0.55;0.40;;;;;;;;;;5033835;28;20173;-68
2022/11/17 05:06:35;;;;;;;1.85;0.60;;;;;;;;;;5037601;28;20056;-67
2022/11/17 05:09:07;;;;;;;1.58;0.47;;;;;;;;;;5024995;28;20059;-69
2022/11/17 05:14:20;;;;;;;1.52;0.60;;;;;;;;;;5030045;28;20056;-71
2022/11/17 05:17:04;;;;;;;1.30;0.40;;;;;;;;;;5036103;28;20053;-66
2022/11/17 05:19:33;;;;;;;0.65;0.40;;;;;;;;;;5033911;28;20057;-68
2022/11/17 05:21:59;;;;;;;0.40;0.35;;;;;;;;;;5030437;28;20249;-68
2022/11/17 05:24:26;;;;;;;0.63;0.40;;;;;;;;;;5029846;28;20056;-69
2022/11/17 05:26:52;;;;;;;0.57;0.30;;;;;;;;;;5030258;28;20113;-71
2022/11/17 05:29:20;;;;;;;0.43;0.40;;;;;;;;;;5029495;28;20549;-68
2022/11/17 05:31:46;;;;;;;1.58;0.40;;;;;;;;;;4998439;28;20387;-69
2022/11/17 05:34:14;;;;;;;1.02;0.50;;;;;;;;;;5037739;28;20405;-67
2022/11/17 05:36:40;;;;;;;0.85;0.40;;;;;;;;;;5034732;28;20051;-68
2022/11/17 05:39:07;;;;;;;0.40;0.35;;;;;;;;;;5037639;28;20052;-68
2022/11/17 05:41:33;;;;;;;1.85;0.50;;;;;;;;;;5039194;28;20059;-69
2022/11/17 05:43:59;;;;;;;0.63;0.38;;;;;;;;;;5027918;28;20053;-67
2022/11/17 05:46:26;;;;;;;1.15;0.50;;;;;;;;;;5035393;28;20043;-69
2022/11/17 05:48:52;;;;;;;0.55;0.55;;;;;;;;;;5031041;28;20055;-67
2022/11/17 05:51:22;;;;;;;1.42;0.52;;;;;;;;;;5022370;28;20132;-70
2022/11/17 05:53:48;;;;;;;1.52;0.45;;;;;;;;;;5031034;28;20052;-70
2022/11/17 05:56:29;;;;;;;0.40;0.40;;;;;;;;;;5030316;28;20193;-70
2022/11/17 05:59:04;;;;;;;3.53;0.77;;;;;;;;;;5030781;28;20053;-68
2022/11/17 06:01:32;;;;;;;0.40;0.40;;;;;;;;;;5032573;28;20056;-69
2022/11/17 06:04:02;;;;;;;1.30;0.52;;;;;;;;;;5034465;28;21692;-71
2022/11/17 06:06:29;;;;;;;0.47;0.40;;;;;;;;;;5037066;28;20599;-71
2022/11/17 06:08:55;;;;;;;1.05;0.45;;;;;;;;;;5028102;28;20129;-70
2022/11/17 06:11:21;;;;;;;2.22;0.50;;;;;;;;;;5029838;28;20398;-69
2022/11/17 06:13:47;;;;;;;3.03;0.60;;;;;;;;;;5028111;28;20049;-70
2022/11/17 06:16:18;;;;;;;0.65;0.50;;;;;;;;;;5021724;28;20060;-73
2022/11/17 06:18:49;;;;;;;0.80;0.50;;;;;;;;;;5030234;28;20068;-70
2022/11/17 06:21:16;;;;;;;1.27;0.52;;;;;;;;;;5029783;28;20048;-73
2022/11/17 06:23:44;;;;;;;0.57;0.45;;;;;;;;;;5013792;28;20044;-69
2022/11/17 06:26:11;;;;;;;0.70;0.45;;;;;;;;;;5027749;28;20064;-70
2022/11/17 06:28:39;;;;;;;0.52;0.52;;;;;;;;;;5032984;28;20097;-72
2022/11/17 06:31:06;;;;;;;0.85;0.50;;;;;;;;;;5036629;28;20152;-69
2022/11/17 06:33:34;;;;;;;3.33;0.55;;;;;;;;;;5023519;28;20045;-70
2022/11/17 06:36:03;;;;;;;3.30;0.60;;;;;;;;;;5029028;28;20076;-70
2022/11/17 06:38:30;;;;;;;1.85;0.50;;;;;;;;;;5024231;28;20076;-69
2022/11/17 06:40:56;;;;;;;0.93;0.68;;;;;;;;;;5034712;28;20049;-68
2022/11/17 06:43:22;;;;;;;0.95;0.55;;;;;;;;;;5036314;28;20110;-70
2022/11/17 06:45:48;;;;;;;3.03;0.70;;;;;;;;;;5029119;28;20053;-69
2022/11/17 06:48:16;;;;;;;0.50;0.50;;;;;;;;;;5025612;28;20494;-70
2022/11/17 06:50:42;;;;;;;4.85;0.60;;;;;;;;;;5039219;28;20165;-70
2022/11/17 06:53:11;;;;;;;1.13;0.63;;;;;;;;;;5037509;28;20490;-69
2022/11/17 06:55:37;;;;;;;1.17;0.60;;;;;;;;;;5032303;28;20494;-71
2022/11/17 06:58:10;;;;;;;2.47;0.50;;;;;;;;;;5015058;28;20660;-70
2022/11/17 07:00:37;;;;;;;2.10;0.47;;;;;;;;;;5034461;28;20435;-68
2022/11/17 07:03:06;;;;;;;1.52;0.45;;;;;;;;;;5028482;28;20160;-68
2022/11/17 07:05:33;;;;;;;1.10;0.70;;;;;;;;;;5036340;28;20060;-70
2022/11/17 07:08:01;;;;;;;0.77;0.60;;;;;;;;;;5028555;28;20159;-69
2022/11/17 07:10:28;;;;;;;2.97;0.90;;;;;;;;;;5036062;28;20512;-69
2022/11/17 07:12:54;;;;;;;5.00;1.10;;;;;;;;;;5032522;28;20044;-68
2022/11/17 07:15:20;;;;;;;8.15;0.93;;;;;;;;;;5036415;28;20063;-72
2022/11/17 07:17:47;;;;;;;1.70;0.70;;;;;;;;;;5032863;28;20060;-72
2022/11/17 07:20:14;;;;;;;4.35;1.35;;;;;;;;;;5031723;28;20939;-70
2022/11/17 07:22:42;;;;;;;2.75;0.80;;;;;;;;;;5032787;28;20135;-70
2022/11/17 07:25:09;;;;;;;1.00;0.80;;;;;;;;;;5019945;28;20057;-68
2022/11/17 07:27:35;;;;;;;1.30;0.70;;;;;;;;;;5035566;28;20053;-69
2022/11/17 07:30:04;;;;;;;3.70;0.80;;;;;;;;;;5033731;28;20057;-69
2022/11/17 07:32:32;;;;;;;4.93;1.10;;;;;;;;;;5035508;28;20083;-69
2022/11/17 07:34:58;;;;;;;1.42;0.82;;;;;;;;;;5036062;28;20056;-70
2022/11/17 07:37:24;;;;;;;3.42;0.95;;;;;;;;;;5031484;28;20054;-69
2022/11/17 07:39:50;;;;;;;5.32;1.35;;;;;;;;;;5025339;28;20131;-69
2022/11/17 07:42:16;;;;;;;3.67;1.33;;;;;;;;;;5035134;28;20620;-71
2022/11/17 07:44:42;;;;;;;5.70;1.40;;;;;;;;;;5038392;28;20048;-72
2022/11/17 07:47:07;;;;;;;6.03;1.20;;;;;;;;;;5034478;28;21380;-68
2022/11/17 07:49:33;;;;;;;3.42;0.90;;;;;;;;;;5036044;28;20074;-69
2022/11/17 07:51:59;;;;;;;3.60;0.85;;;;;;;;;;5038654;28;20841;-69
2022/11/17 07:54:25;;;;;;;4.93;1.05;;;;;;;;;;5035629;28;20179;-70
2022/11/17 07:56:51;;;;;;;4.15;0.82;;;;;;;;;;5036557;28;20049;-71
2022/11/17 07:59:17;;;;;;;2.58;1.25;;;;;;;;;;5032952;28;20053;-70
2022/11/17 08:01:43;;;;;;;8.63;1.48;;;;;;;;;;5034142;28;20109;-71
2022/11/17 08:04:10;;;;;;;5.28;1.00;;;;;;;;;;5032951;28;20048;-69
2022/11/17 08:06:36;;;;;;;6.32;1.20;;;;;;;;;;5037108;28;20041;-70
2022/11/17 08:09:02;;;;;;;2.72;0.85;;;;;;;;;;5034842;28;20110;-69
2022/11/17 08:11:28;;;;;;;3.70;1.33;;;;;;;;;;5039934;28;20078;-72
2022/11/17 08:13:54;;;;;;;3.42;1.13;;;;;;;;;;5039254;28;20322;-73
2022/11/17 08:16:20;;;;;;;4.18;1.38;;;;;;;;;;5034051;28;20044;-69
2022/11/17 08:18:47;;;;;;;7.28;1.13;;;;;;;;;;5034905;28;20063;-70
2022/11/17 08:21:13;;;;;;;3.92;1.23;;;;;;;;;;5045447;28;20176;-68
2022/11/17 08:23:40;;;;;;;3.08;0.95;;;;;;;;;;5039865;28;20071;-70
2022/11/17 08:26:08;;;;;;;6.10;1.00;;;;;;;;;;5038199;28;20045;-71
2022/11/17 08:28:34;;;;;;;5.57;1.60;;;;;;;;;;5034122;28;20060;-70
2022/11/17 08:31:04;;;;;;;4.40;1.20;;;;;;;;;;5035694;28;20059;-72
2022/11/17 08:33:31;;;;;;;3.72;1.25;;;;;;;;;;5039001;28;21198;-70
2022/11/17 08:35:58;;;;;;;1.55;0.52;;;;;;;;;;5038328;28;20473;-69
2022/11/17 08:38:28;;;;;;;2.45;0.70;;;;;;;;;;5041362;28;20052;-71
2022/11/17 08:40:55;;;;;;;2.28;0.63;;;;;;;;;;5033462;28;20457;-69
2022/11/17 08:43:21;;;;;;;4.53;0.75;;;;;;;;;;5032860;28;20052;-71
2022/11/17 08:45:47;;;;;;;6.38;0.70;;;;;;;;;;5038828;28;20825;-69
2022/11/17 08:48:13;;;;;;;6.70;1.00;;;;;;;;;;5035391;28;20064;-71
2022/11/17 08:50:38;;;;;;;2.00;0.80;;;;;;;;;;5035960;28;20049;-68
2022/11/17 08:53:04;;;;;;;7.38;1.00;;;;;;;;;;5042385;28;20061;-70
2022/11/17 08:55:30;;;;;;;5.75;1.13;;;;;;;;;;5035969;28;20130;-70
2022/11/17 08:57:56;;;;;;;6.45;0.82;;;;;;;;;;5030019;28;20041;-69
2022/11/17 09:00:22;;;;;;;1.70;0.80;;;;;;;;;;5037840;28;20573;-70
2022/11/17 09:02:48;;;;;;;5.55;0.90;;;;;;;;;;5037250;28;20482;-68
2022/11/17 09:05:14;;;;;;;4.13;0.80;;;;;;;;;;5037027;28;20060;-68
2022/11/17 09:07:40;;;;;;;4.78;0.90;;;;;;;;;;5036685;28;20049;-69
2022/11/17 09:10:09;;;;;;;3.03;1.10;;;;;;;;;;5038116;28;20067;-67
2022/11/17 09:12:36;;;;;;;9.60;0.90;;;;;;;;;;5038511;28;20052;-67
2022/11/17 09:15:03;;;;;;;4.45;0.60;;;;;;;;;;5034471;28;20149;-67
2022/11/17 09:17:30;;;;;;;4.53;0.80;;;;;;;;;;5036367;28;21435;-70
2022/11/17 09:19:56;;;;;;;2.92;0.80;;;;;;;;;;5036841;28;20905;-66
2022/11/17 09:22:22;;;;;;;3.65;0.68;;;;;;;;;;5037976;28;20063;-71
2022/11/17 09:24:48;;;;;;;8.98;0.90;;;;;;;;;;5039144;28;20037;-70
2022/11/17 09:27:14;;;;;;;9.52;1.00;;;;;;;;;;5032387;28;20049;-69
2022/11/17 09:29:39;;;;;;;4.47;0.90;;;;;;;;;;5019188;28;20674;-69
2022/11/17 09:32:06;;;;;;;4.18;0.75;;;;;;;;;;5036366;28;20305;-70
2022/11/17 09:34:31;;;;;;;6.20;0.80;;;;;;;;;;5034687;28;20490;-69
2022/11/17 09:36:57;;;;;;;6.25;0.90;;;;;;;;;;5018521;28;20057;-69
2022/11/17 09:39:23;;;;;;;7.68;0.90;;;;;;;;;;5038544;28;20451;-68
2022/11/17 09:41:50;;;;;;;10.77;1.00;;;;;;;;;;5034945;28;20468;-70
2022/11/17 09:44:40;;;;;;;12.48;1.88;;;;;;;;;;5038684;28;20045;-69
2022/11/17 09:47:29;;;;;;;15.32;1.50;;;;;;;;;;5034502;28;20584;-70
2022/11/17 09:50:04;;;;;;;9.40;1.10;;;;;;;;;;4980726;28;20199;-71
2022/11/17 09:52:48;;;;;;;2.53;1.00;;;;;;;;;;4983076;28;20461;-71
2022/11/17 09:55:45;;;;;;;4.53;1.05;;;;;;;;;;4986281;28;20326;-71
2022/11/17 09:58:21;;;;;;;4.40;0.80;;;;;;;;;;4962535;28;20073;-70
2022/11/17 10:00:49;;;;;;;6.43;0.95;;;;;;;;;;4967170;28;20070;-70
2022/11/17 10:03:25;;;;;;;17.83;1.38;;;;;;;;;;4983316;28;20125;-70
2022/11/17 10:05:52;;;;;;;7.43;1.15;;;;;;;;;;4982324;28;20089;-72
2022/11/17 10:08:40;;;;;;;5.97;1.10;;;;;;;;;;4981494;28;20062;-70
2022/11/17 10:11:44;;;;;;;4.18;1.35;;;;;;;;;;4982946;28;20053;-68
2022/11/17 10:14:06;;;;;;;10.65;0.90;;;;;;;;;;4979376;28;20046;-69
2022/11/17 10:16:33;;;;;;;3.20;0.75;;;;;;;;;;4982239;28;20119;-70
2022/11/17 10:19:25;;;;;;;4.93;0.90;;;;;;;;;;4978117;28;20374;-71
2022/11/17 10:21:57;;;;;;;1.83;0.75;;;;;;;;;;4981578;28;20460;-69
2022/11/17 10:24:57;;;;;;;10.80;1.95;;;;;;;;;;4987849;28;20058;-69
2022/11/17 10:27:31;;;;;;;5.47;0.50;;;;;;;;;;5018626;28;20113;-69
2022/11/17 10:30:20;;;;;;;5.30;0.73;;;;;;;;;;5036161;28;20536;-68
2022/11/17 10:32:52;;;;;;;4.15;0.95;;;;;;;;;;5041319;28;20072;-69
2022/11/17 10:35:22;;;;;;;0.95;0.68;;;;;;;;;;5043094;28;20044;-70
2022/11/17 10:38:07;;;;;;;2.22;0.70;;;;;;;;;;5035996;28;20053;-68
2022/11/17 10:40:39;;;;;;;1.75;0.57;;;;;;;;;;5039225;28;20072;-67
2022/11/17 10:43:11;;;;;;;5.30;0.60;;;;;;;;;;5039886;28;20053;-69
2022/11/17 10:45:47;;;;;;;2.88;0.60;;;;;;;;;;5042199;28;20364;-68
2022/11/17 10:48:28;;;;;;;1.05;0.68;;;;;;;;;;5037339;28;20060;-70
2022/11/17 10:50:58;;;;;;;1.75;0.90;;;;;;;;;;5041325;28;20090;-70
2022/11/17 10:53:35;;;;;;;4.93;0.60;;;;;;;;;;5038777;28;20082;-70
2022/11/17 10:56:16;;;;;;;1.85;0.70;;;;;;;;;;5039441;28;20049;-69
2022/11/17 10:59:00;;;;;;;2.17;0.75;;;;;;;;;;5031947;28;20053;-68
2022/11/17 11:01:36;;;;;;;4.65;0.95;;;;;;;;;;5040013;28;20564;-70
2022/11/17 11:04:04;;;;;;;5.72;0.90;;;;;;;;;;5040269;28;20754;-67
2022/11/17 11:06:33;;;;;;;4.75;1.02;;;;;;;;;;5036536;28;20650;-69
2022/11/17 11:09:21;;;;;;;5.95;1.15;;;;;;;;;;5039613;28;20096;-70
2022/11/17 11:11:55;;;;;;;14.27;1.38;;;;;;;;;;5040918;28;20067;-69
2022/11/17 11:14:39;;;;;;;4.80;1.00;;;;;;;;;;5039326;28;20528;-71
2022/11/17 11:17:10;;;;;;;4.03;1.10;;;;;;;;;;5037174;28;20070;-69
2022/11/17 11:19:36;;;;;;;4.35;1.23;;;;;;;;;;5036122;28;20060;-70
2022/11/17 11:22:43;;;;;;;5.00;0.90;;;;;;;;;;5024554;28;20894;-71
2022/11/17 11:25:25;;;;;;;14.15;1.40;;;;;;;;;;5038570;28;20493;-68
2022/11/17 11:27:59;;;;;;;8.23;0.85;;;;;;;;;;5018320;28;20348;-70
2022/11/17 11:30:26;;;;;;;4.57;1.10;;;;;;;;;;5037689;28;20056;-71
2022/11/17 11:33:22;;;;;;;6.18;0.70;;;;;;;;;;5040416;28;20064;-71
2022/11/17 11:36:03;;;;;;;3.45;1.08;;;;;;;;;;5041426;28;20040;-70
2022/11/17 11:39:04;;;;;;;9.45;1.30;;;;;;;;;;5033628;28;20053;-72
2022/11/17 11:41:52;;;;;;;8.45;1.00;;;;;;;;;;5024692;28;20064;-71
2022/11/17 11:44:47;;;;;;;2.40;0.90;;;;;;;;;;5040020;28;20064;-69
2022/11/17 11:47:31;;;;;;;2.67;0.93;;;;;;;;;;5033680;28;20057;-70
2022/11/17 11:49:57;;;;;;;;;;;;;;;;;;5034660;28;20105;-72
2022/11/17 11:52:32;;;;;;;5.95;1.35;;;;;;;;;;5038836;28;19920;-70
2022/11/17 11:55:05;;;;;;;2.83;1.10;;;;;;;;;;5042805;28;20664;-73
2022/11/17 11:57:44;;;;;;;2.65;0.88;;;;;;;;;;5034965;28;20053;-70
2022/11/17 12:00:16;;;;;;;2.20;0.70;;;;;;;;;;5035245;28;20071;-70
2022/11/17 12:02:59;;;;;;;3.20;1.00;;;;;;;;;;5040126;28;20415;-69
2022/11/17 12:05:32;;;;;;;2.38;0.90;;;;;;;;;;5034603;28;20056;-70
2022/11/17 12:08:13;;;;;;;5.53;1.20;;;;;;;;;;5036498;28;20486;-69
2022/11/17 12:10:46;;;;;;;7.22;1.70;;;;;;;;;;5038480;28;20048;-71
2022/11/17 12:13:14;;;;;;;1.33;1.10;;;;;;;;;;5039480;28;20118;-71
2022/11/17 12:15:40;;;;;;;1.85;0.73;;;;;;;;;;5036988;28;20064;-70
2022/11/17 12:18:27;;;;;;;1.10;0.80;;;;;;;;;;5039880;28;20102;-67
2022/11/17 12:21:09;;;;;;;1.05;0.60;;;;;;;;;;5037485;28;20075;-70
2022/11/17 12:24:05;;;;;;;6.10;0.80;;;;;;;;;;5036779;28;20450;-67
2022/11/17 12:26:33;;;;;;;2.65;0.63;;;;;;;;;;5035623;28;20386;-70
2022/11/17 12:29:21;;;;;;;0.88;0.50;;;;;;;;;;5036081;28;20069;-69
2022/11/17 12:31:49;;;;;;;4.45;0.82;;;;;;;;;;5040554;28;20517;-68
2022/11/17 12:34:23;;;;;;;2.72;0.63;;;;;;;;;;5040216;28;20060;-68
2022/11/17 12:37:14;;;;;;;6.07;0.90;;;;;;;;;;5040094;28;20057;-69
2022/11/17 12:40:03;;;;;;;1.67;0.60;;;;;;;;;;5035066;28;20048;-70
2022/11/17 12:42:31;;;;;;;1.25;0.70;;;;;;;;;;5038975;28;20561;-69
2022/11/17 12:44:59;;;;;;;0.55;0.50;;;;;;;;;;5039391;28;20090;-69
2022/11/17 12:47:30;;;;;;;1.20;0.70;;;;;;;;;;5036069;28;20045;-70
2022/11/17 12:50:08;;;;;;;0.50;0.50;;;;;;;;;;5035336;28;20119;-70
2022/11/17 12:52:56;;;;;;;1.65;0.52;;;;;;;;;;5037623;28;20060;-69
2022/11/17 12:55:31;;;;;;;2.90;0.60;;;;;;;;;;5038232;28;20041;-71
2022/11/17 12:58:16;;;;;;;1.80;0.50;;;;;;;;;;5027882;28;20083;-69
2022/11/17 13:01:03;;;;;;;1.33;0.70;;;;;;;;;;5036881;28;20079;-70
2022/11/17 13:03:54;;;;;;;2.05;0.70;;;;;;;;;;5034020;28;20044;-68
2022/11/17 13:06:20;;;;;;;5.80;0.65;;;;;;;;;;5034141;28;20052;-68
2022/11/17 13:08:58;;;;;;;2.38;0.73;;;;;;;;;;5035364;28;20228;-69
2022/11/17 13:11:24;;;;;;;6.30;0.75;;;;;;;;;;5033190;28;20146;-69
2022/11/17 13:14:05;;;;;;;3.00;0.60;;;;;;;;;;5036308;28;20071;-69
2022/11/17 13:16:31;;;;;;;4.68;1.00;;;;;;;;;;5034863;28;20188;-71
2022/11/17 13:18:57;;;;;;;1.55;0.60;;;;;;;;;;5037530;28;20055;-70
2022/11/17 13:21:31;;;;;;;1.40;0.60;;;;;;;;;;5039397;28;20045;-67
2022/11/17 13:23:58;;;;;;;;;;;;;;;;;;5040045;28;20049;-70
2022/11/17 13:26:26;;;;;;;1.55;0.40;;;;;;;;;;5035010;28;19928;-67
2022/11/17 13:29:13;;;;;;;1.48;0.55;;;;;;;;;;5035772;28;20044;-70
2022/11/17 13:31:39;;;;;;;1.98;0.70;;;;;;;;;;5038781;28;20691;-70
2022/11/17 13:34:10;;;;;;;2.17;1.00;;;;;;;;;;5039490;28;20068;-69
2022/11/17 13:36:54;;;;;;;1.60;0.90;;;;;;;;;;5033232;28;20072;-68
2022/11/17 13:39:20;;;;;;;1.98;0.82;;;;;;;;;;5032968;28;20053;-71
2022/11/17 13:41:47;;;;;;;0.98;0.55;;;;;;;;;;5037024;28;20052;-72
2022/11/17 13:44:17;;;;;;;0.45;0.40;;;;;;;;;;5035921;28;20056;-68
2022/11/17 13:46:42;;;;;;;1.67;0.60;;;;;;;;;;5034575;28;20075;-71
2022/11/17 13:49:36;;;;;;;3.03;1.10;;;;;;;;;;5035542;28;20423;-69
2022/11/17 13:52:04;;;;;;;0.88;0.73;;;;;;;;;;5024785;28;21331;-71
2022/11/17 13:54:31;;;;;;;8.55;0.95;;;;;;;;;;5037643;28;20057;-69
2022/11/17 13:57:06;;;;;;;1.50;0.70;;;;;;;;;;5034155;28;20041;-72
2022/11/17 13:59:35;;;;;;;2.35;1.02;;;;;;;;;;5041881;28;20482;-70
2022/11/17 14:02:15;;;;;;;0.77;0.77;;;;;;;;;;5036195;28;20398;-68
2022/11/17 14:05:06;;;;;;;1.48;0.90;;;;;;;;;;5042926;28;20056;-72
2022/11/17 14:07:37;;;;;;;2.95;1.20;;;;;;;;;;5040803;28;20054;-70
2022/11/17 14:10:24;;;;;;;3.83;1.38;;;;;;;;;;5038783;28;20171;-70
2022/11/17 14:13:07;;;;;;;2.20;1.33;;;;;;;;;;5036651;28;20956;-69
2022/11/17 14:15:41;;;;;;;3.33;0.87;;;;;;;;;;5040876;28;20044;-69
2022/11/17 14:18:22;;;;;;;1.48;0.80;;;;;;;;;;5019296;28;20057;-70
2022/11/17 14:20:48;;;;;;;1.27;0.80;;;;;;;;;;5044551;28;20101;-71
2022/11/17 14:23:14;;;;;;;0.98;0.80;;;;;;;;;;5040656;28;20500;-69
2022/11/17 14:25:42;;;;;;;2.03;0.63;;;;;;;;;;5040250;28;20094;-70
2022/11/17 14:28:19;;;;;;;1.23;0.98;;;;;;;;;;5034610;28;20055;-67
2022/11/17 14:30:53;;;;;;;5.82;0.98;;;;;;;;;;5037328;28;20061;-70
2022/11/17 14:33:20;;;;;;;7.03;1.00;;;;;;;;;;5033882;28;20391;-69
2022/11/17 14:35:57;;;;;;;1.60;0.90;;;;;;;;;;5044253;28;20066;-69
2022/11/17 14:38:23;;;;;;;4.20;0.85;;;;;;;;;;5038249;28;20125;-69
2022/11/17 14:40:51;;;;;;;2.55;1.10;;;;;;;;;;5044809;28;20053;-70
2022/11/17 14:43:18;;;;;;;4.60;0.75;;;;;;;;;;5017786;28;20422;-69
2022/11/17 14:45:44;;;;;;;2.65;0.70;;;;;;;;;;5040018;28;20482;-70
2022/11/17 14:48:10;;;;;;;4.38;1.10;;;;;;;;;;5032649;28;20875;-70
2022/11/17 14:50:36;;;;;;;12.77;1.30;;;;;;;;;;5036441;28;20057;-67
2022/11/17 14:53:02;;;;;;;3.53;0.90;;;;;;;;;;5039129;28;20041;-70
2022/11/17 14:55:28;;;;;;;2.38;0.68;;;;;;;;;;5019849;28;20053;-69
2022/11/17 14:57:54;;;;;;;1.77;0.80;;;;;;;;;;5033936;28;20520;-70
2022/11/17 15:00:20;;;;;;;2.60;0.60;;;;;;;;;;5042898;28;20053;-70
2022/11/17 15:02:46;;;;;;;3.28;0.70;;;;;;;;;;5038493;28;20079;-71
2022/11/17 15:05:12;;;;;;;1.60;0.60;;;;;;;;;;5040062;28;20581;-69
2022/11/17 15:07:39;;;;;;;1.42;0.70;;;;;;;;;;5020380;28;20052;-71
2022/11/17 15:10:06;;;;;;;3.10;0.35;;;;;;;;;;5038193;28;20697;-69
2022/11/17 15:12:32;;;;;;;4.05;0.70;;;;;;;;;;5036987;28;20055;-70
2022/11/17 15:14:58;;;;;;;1.50;0.73;;;;;;;;;;5042379;28;20044;-69
2022/11/17 15:17:26;;;;;;;1.75;1.02;;;;;;;;;;5038384;28;20269;-70
2022/11/17 15:19:53;;;;;;;0.75;0.47;;;;;;;;;;5041011;28;20056;-70
2022/11/17 15:22:19;;;;;;;1.27;0.60;;;;;;;;;;5040096;28;20061;-69
2022/11/17 15:24:46;;;;;;;0.90;0.55;;;;;;;;;;5039591;28;20072;-70
2022/11/17 15:27:12;;;;;;;6.25;0.85;;;;;;;;;;5035344;28;20063;-71